AREA preflight bulletin
Updated "live" 18 Jun 2018, 14:56

back to the map




METAR og TAF


NARSARSUAQ
  AKTUEL BGBW 181350Z 24008KT 210V270 9999 FEW040 10/00 Q1004 RMK 1CU =
  TAF 9 timer BGBW 181414Z 1815/1820 VRB05KT 9999 FEW040 TEMPO 1815/1820 BKN025=

QAQORTOQ
  AKTUEL BGJH 181450Z AUTO 28009KT 250V330 //// ///////// 03/01 Q1004=

PAAMIUT
  AKTUEL BGPT 181450Z 30007KT 9999 FEW002 BKN007 02/01 Q1006=
  TAF 9 timer BGPT 181202Z 1812/1819 30008KT 9999 BKN003 TEMPO 1812/1819 1500 BCFG SCT006=

NARSAQ
  AKTUEL BGNS 181450Z AUTO 30005KT 250V340 //// ///////// 07/01 Q1005=

NANORTALIK
  AKTUEL

NUUK
  AKTUEL BGGH 181450Z 21007KT 180V240 9999 SCT300 05/01 Q1005=
  TAF 9 timer BGGH 181414Z 1815/1824 22005KT 9999 FEW006 PROB40 1815/1824 2500 BCFG BKN008=

KANGERLUSSUAQ
  AKTUEL BGSF 181450Z AUTO VRB04KT 9999NDV NCD 14/02 Q1003=
  TAF 24 timer BGSF 181102Z 1812/1918 VRB07KT 9999 SCT075 TEMPO 1812/1824 BKN050=


SIGMETS:

Ingen SIGMET fundet:

NOTAM/SNOWTAM for operationel use has to be confirmed with the
nearest AIS Briefing Office prior to a flight.

ICAO
BGBW (NARSARSUAQ)

FIR
BGGL

Notam_id:
BGA0219/18

valid from:
1806131317

E) SEA RESCUE NOT AVBL.

valid to:
1806271800EST


Replacing:
BGA0198/18

ICAO
BGBW (NARSARSUAQ)

FIR
BGGL

Notam_id:
BGA0210/18

valid from:
1806071814

E) REF AD-2 RNAV (GNSS) Y RWY 06-1 DUE TO TERRAIN WARNING REPORTS ON FINAL, LNAV OCA(H) INCREASED. CAT A INCREASED TO 1800(1688) FT FOR ALL CLIMB GRADIENTS. CAT B INCREASED TO 1800(1688) FT FOR ALL CLIMB GRADIENTS. CAT C INCREASED TO 1800(1688) FT FOR ALL CLIMB GRADIENTS.

valid to:
1807071800EST


Replacing:
BGA0182/18

ICAO
BGBW (NARSARSUAQ)

FIR
BGGL

Notam_id:
BGA0102/18

valid from:
1803091525

E) NARSARSUAQ DME NQ FREQ 111,850 MHZ CH55Y CORRECT ELEVATION 788FT. AIP REFERENCE: AD-2-BGBW-4, ITEM 19 AND BGBW APPROACH CHARTS

valid to:
PERM




ICAO
BGBW (NARSARSUAQ)

FIR
BGGL

Notam_id:
BGA0211/18

valid from:
1806071815

E) REF AD-2 RNAV (GNSS) Z RWY 06-1 DUE TO TERRAIN WARNING REPORTS ON FINAL, LNAV OCA(H) INCREASED. CAT A INCREASED TO 1800(1688) FT FOR ALL CLIMB GRADIENTS. CAT B INCREASED TO 1800(1688) FT FOR ALL CLIMB GRADIENTS.

valid to:
1807071800EST


Replacing:
BGA0183/18

ICAO
BGPT (PAAMIUT)

FIR
BGGL

Notam_id:
BGB0384/18

valid from:
1806111100

E) AD OPERATIONAL HOURS: MON-FRI 1100-1800 UTC. SAT/SUN/HOL CLSD.

valid to:
1809151800




ICAO
BGPT (PAAMIUT)

FIR
BGGL

Notam_id:
BGB0413/18

valid from:
1806011631

E) OBST LGT WDI THR35 OUT OF SERVICE.

valid to:
1807021200EST


Replacing:
BGB0326/18

ICAO
BGNN (NANORTALIK)

FIR
BGGL

Notam_id:
BGC0047/18

valid from:
1806041206

E) OPMET SHOWS WIND DIRECTION AND STRENGTH WRONG.

valid to:
1806301150


Replacing:
BGC0046/18

ICAO
BGGL (SONDRESTROM FIR)

FIR
BGGL

Notam_id:
BGA0200/18

valid from:
1806010451

E) CHECKLIST YEAR=2017 0269 YEAR=2018 0102 0106 0107 0108 0128 0177 0182 0183 0184 0197 0198 0199 LATEST PUBLICATIONS AIP AIRAC AMDT IFR 007/2018 EFFECTIVE DATE 19 JUL 18 AIP AMDT IFR 003/2018 EFFECTIVE DATE 15 MAR 18 AIP SUP IFR 004/2018 EFFECTIVE DATE 03 MAY 18 AIC IFR A002/2018 EFFECTIVE DATE 13 FEB 18

valid to:
1807010451EST


Replacing:
BGA0176/18

ICAO
BGGL (SONDRESTROM FIR)

FIR
BGGL

Notam_id:
BGB0407/18

valid from:
1806010452

E) CHECKLIST YEAR=2017 0740 0775 0901 0902 0913 0918 0930 YEAR=2018 0002 0245 0266 0326 0334 0338 0339 0340 0346 0350 0361 0362 0363 0364 0384 0392 0393 0401 0402 0404 0405 0406 LATEST PUBLICATIONS AIP AIRAC AMDT IFR 007/2018 EFFECTIVE DATE 19 JUL 18 AIP AMDT IFR 003/2018 EFFECTIVE DATE 15 MAR 18 AIP SUP IFR 004/2018 EFFECTIVE DATE 03 MAY 18 AIC IFR A002/2018 EFFECTIVE DATE 13 FEB 18

valid to:
1807010452EST


Replacing:
BGB0341/18

ICAO
BGGL (SONDRESTROM FIR)

FIR
BGGL

Notam_id:
BGC0045/18

valid from:
1806010452

E) CHECKLIST YEAR=2017 0055 0056 0077 YEAR=2018 0014 0032 0037 0041 0042 LATEST PUBLICATIONS AIP AIRAC AMDT IFR 007/2018 EFFECTIVE DATE 19 JUL 18 AIP AMDT IFR 003/2018 EFFECTIVE DATE 15 MAR 18 AIP SUP IFR 004/2018 EFFECTIVE DATE 03 MAY 18 AIC IFR A002/2018 EFFECTIVE DATE 13 FEB 18

valid to:
1807010452EST


Replacing:
BGC0038/18

ICAO
BGGL (SONDRESTROM FIR)

FIR
BGGL

Notam_id:
BGA0177/18

valid from:
1806210000

E) TRIGGER NOTAM - PERM AIP AIRAC AMDT 06/18 WEF 21 JUN 2018. VARIATION UPDATED FOR ATS ROUTE W20.

valid to:
1807042359




ICAO
BGGL (SONDRESTROM FIR)

FIR
BGGL

Notam_id:
BGB0350/18

valid from:
1805160800

D) DAILY 0800-2200


E) TEMPORARY RESTRICTED AREA DUE TO DRONE ACTIVITY IS ACTIVE. REF AIP SUP 04/18 PUBLISHED 03 MAY 2018. LATERAL LIMITS: 753531N0361504W 753859N0355013W 753238N0353637W 752918N0360004W NO TRAFFIC PERMITTED IN THE AREA. F) SFC G) 12500FT AMSL

valid to:
1808092200




ICAO
BGGL (SONDRESTROM FIR)

FIR
BGGL

Notam_id:
BGB0425/18

valid from:
1806050800

E) TRIGGER NOTAM - AIP SUP 05/18 - WEF 01 JUN 2018. TEMPORARY RESTRICTED AREA ATTU. F) SFC G) 2500FT AMSL

valid to:
1806190759




ICAO
BGGL (SONDRESTROM FIR)

FIR
BGGL

Notam_id:
BGA0199/18

valid from:
1805310935

E) GREENLAND AND ADJACENT WATERS ARE CONSIDERED HOSTILE AREAS BY THE CIVIL AVIATION AUTHORITY (TBST). THREE MAJOR REASONS CONTRIBUTE TO DEFINING THE AREA AS HOSTILE: A SAFE FORCED LANDING CANNOT BE ACCOMPLISHED BECAUSE THE SURFACE IS INADEQUATE. THE HELICOPTER OCCUPANTS CANNOT BE ADEQUATELY PROTECTED FROM THE ELEMENTS. SEARCH AND RESCUE RESPONSE/CAPABILITY ARE NOT PROVIDED CONSISTENT WITH ANTICIPATED EXPOSURE.

valid to:
PERM




ICAO
BGGH (NUUK)

FIR
BGGL

Notam_id:
BGB0266/18

valid from:
1804061520

E) BGGH AFIS FREQ 119.100 MHZ NO COVERAGE IN SECTOR BETWEEN 060 DEG MAG AND 210 DEG MAG BELOW FL100.

valid to:
1806302359EST


Replacing:
BGB0265/18

ICAO
BGGH (NUUK)

FIR
BGGL

Notam_id:
BGB0930/17

valid from:
1712181907

E) ERROR IN CHART FOR RNAV (GNSS) APPROACH RWY 23. WITH REF AIP GREENLAND AD 2-BGGH RNAV (GNSS) RWY 23-1. NEW OCA(H) LNAV/VNAV CLIMB 2.5 PERCENT CAT A TO READ 1310 (1029) INSTEAD OF 1230. NEW OCA(H) LNAV/VNAV CLIMB 2.5 PERCENT CAT B TO READ 1340 (1059) INSTEAD OF 1250. NEW OCA(H) LNAV/VNAV CLIMB 5.0 PERCENT CAT A TO READ 1300 (1019) INSTEAD OF 1070. NEW OCA(H) LNAV/VNAV CLIMB 5.0 PERCENT CAT B TO READ 1320 (1039) INSTEAD OF 1110. NEW OCA(H) LNAV CLIMB 5.0 PERCENT CAT A TO READ 1150 (869) IN-STEAD OF 1130. NEW OCA(H) LNAV CLIMB 5.0 PERCENT CAT B TO READ 1240 (959) INSTEAD OF 1230.

valid to:
PERM




ICAO
BGGH (NUUK)

FIR
BGGL

Notam_id:
BGB0477/18

valid from:
1806151409

E) 50CM DEEP HOLES DUG BY THE PAPI'S RWY 05 AND 30CM DEEP HOLES DUG 10 METERS LONG ALONG THE NORTHERN SIDE OF TAXIWAY.

valid to:
1806291900EST


Replacing:
BGB0411/18

ICAO
BGGH (NUUK)

FIR
BGGL

Notam_id:
BGB0338/18

valid from:
1804301657

E) CRANE RAISED AT PSN 641124N0514021W (AIR GREENLAND HANGAR AREA). TOP 82FT AGL.

valid to:
1806301900EST


Replacing:
BGB0264/18

ICAO
BGGH (NUUK)

FIR
BGGL

Notam_id:
BGB0478/18

valid from:
1806151410

E) 50 PCT OF PAPI ON BOTH RWY OUT OF SERVICE. ONLY ONE OF TWO BULBS IS OPERATIONAL ON EVERY PAPI ARMATURE.

valid to:
1806291900EST


Replacing:
BGB0412/18

ICAO
BGGH (NUUK)

FIR
BGGL

Notam_id:
BGB0474/18

valid from:
1806141851

E) OBST LIGHTS ANEMOMETER RWY 05 OUT OF SERVICE

valid to:
1806291900




ICAO
BGGH (NUUK)

FIR
BGGL

Notam_id:
BGB0475/18

valid from:
1806141853

E) OBST LIGHTS WINDSOCK RWY 05 OUT OF SERVICE.

valid to:
1806291900




ICAO
BGGH (NUUK)

FIR
BGGL

Notam_id:
BGB0479/18

valid from:
1806161230

E) HOLE DUG ON SOUTHERN SIDE OF THE TWY. DIMENSIONS: 40 METER LONG, 75 CM WIDE, 55 CM DEEP. DIRTPILE NEXT TO THE HOLE, HEIGHT 75 CM.

valid to:
1806291900EST




ICAO
BGSF (KANGERLUSSUAQ)

FIR
BGGL

Notam_id:
BGA0213/18

valid from:
1806091652

E) PAPI LIGHTS ARE SET ON 10 PERCENT INTENSITY. 20 MINUTES PRIOR NOTICE REQUIRED TO CHANGE SETTING.

valid to:
1809101800EST


Replacing:
BGA0106/18

ICAO
BGSF (KANGERLUSSUAQ)

FIR
BGGL

Notam_id:
BGA0214/18

valid from:
1806091654

E) APCH LIGHTS ARE SET ON 10 PERCENT INTENSITY. 20 MINUTES PRIOR NOTICE REQUIRED TO CHANGE SETTING.

valid to:
1809101800EST


Replacing:
BGA0107/18

ICAO
BGSF (KANGERLUSSUAQ)

FIR
BGGL

Notam_id:
BGA0215/18

valid from:
1806091655

E) RWY EDGE LIGHTS ARE SET ON 10 PERCENT INTENSITY. 20 MINUTES PRIOR NOTICE REQUIRED TO CHANGE SETTING.

valid to:
1809101800EST


Replacing:
BGA0108/18


Copyright Naviair   2003-2016